Pagrindinis puslapis
METAR-TAF:

METAR-TAF

Oro uostai :

Oslas, Norvegija

platuma: 60-12N, ilguma: 011-05E, Aukštis: 208 m

Dabartinis oras

Ataskaita buvo paskelbta 39 minutes, ne 11:50 UTC
Vėjas 3 kt iš Pietų/Pietvakarių
Temperatūra -1°C
Drėgmė 100%
Slėgis 994 hPa
Matomumas 10 km arba daugiau
Su prošvaistėmis ne aukštis 500 ft

METAR: ENGM 161150Z 20003KT 9999 BKN005 M01/M01 Q0994 NOSIG

Laikas: 13:29 (12:29 UTC)

Prognozė

Prognozė galioja nuo 16 metu 12 UTC su 17 metu 12 UTC
Vėjas 5 kt nuo kintamojo kryptimis
Matomumas 10 km arba daugiau
Išsisklaidę debesys ne aukštis 400 ft
Su prošvaistėmis ne aukštis 1000 ft
Laikinai
nuo 16 metu 12 UTC su 16 metu 19 UTC
Matomumas: 4000 m
Apsiniaukę ne aukštis 400 ft
rūkana
Tapsmas
nuo 16 metu 19 UTC su 16 metu 21 UTC
Matomumas: 4000 m
Apsiniaukę ne aukštis 400 ft
rūkana
Tikimybė 40%
nuo 16 metu 21 UTC su 17 metu 12 UTC
Matomumas: 0500 m
ne aukštis 100 ft
įšaldymas rūko

TAF: ENGM 1612/1712 VRB05KT 9999 SCT004 BKN010 TEMPO 1612/1619 4000 BR OVC004 BECMG 1619/1621 4000 BR OVC004 PROB40 1621/1712 0500 FZFG VV001

Orai ataskaitas ir orų prognozės (METAR, TAF).

turimą stotys yra geltonos ir raudonos taškus žemėlapyje.

Perkelti pele per norėdami pamatyti stoties vardą.

Tada spustelėkite, norėdami matyti oro stebėjimo ir prognozės.

Norėdami pakeisti žemėlapį: spustelėkite ant žalios mygtukų su juodo kryžiaus žemyn,; žalią mygtuką su brūkšneliu, jei norite nutolinti; arba žalių rodyklių gretimoms žemėlapius.


METAR-TAF: